Time;durP1;ratioP1;P1;durP2;ratioP2;P2;SDS_P1;SDS_P2;PMS_P1;PMS_P2;Temp;Humidity;BMP_temperature;BMP_pressure;BME280_temperature;BME280_humidity;BME280_pressure;Samples;Min_cycle;Max_cycle;Signal;HPM_P1;HPM_P2
2022/08/21 00:01:41;;;;;;;12.45;7.57;;;;;;;12.90;100.00;163937.91;4992590;28;20434;-58
2022/08/21 00:04:09;;;;;;;13.38;7.47;;;;;;;12.90;100.00;163937.91;4993042;28;20393;-58
2022/08/21 00:06:35;;;;;;;10.30;7.75;;;;;;;12.90;100.00;163937.91;4994111;28;20018;-58
2022/08/21 00:09:03;;;;;;;10.48;8.68;;;;;;;12.90;100.00;163937.91;4992830;28;20030;-58
2022/08/21 00:11:28;;;;;;;19.15;10.23;;;;;;;12.91;100.00;163940.63;4994206;28;20080;-58
2022/08/21 00:13:54;;;;;;;13.88;9.90;;;;;;;12.90;100.00;163937.91;4992696;28;20022;-58
2022/08/21 00:16:19;;;;;;;16.48;10.30;;;;;;;12.90;100.00;163936.53;4994486;28;20022;-58
2022/08/21 00:18:45;;;;;;;16.23;9.20;;;;;;;12.90;100.00;163936.53;4994053;28;20186;-58
2022/08/21 00:21:12;;;;;;;11.55;8.25;;;;;;;12.90;100.00;163936.53;4992418;28;20047;-58
2022/08/21 00:23:37;;;;;;;17.02;10.20;;;;;;;-146.58;100.00;69501.63;4994194;28;20088;-58
2022/08/21 00:26:03;;;;;;;17.38;9.63;;;;;;;-146.58;100.00;69501.63;4992588;28;20046;-58
2022/08/21 00:28:28;;;;;;;13.10;9.98;;;;;;;-146.58;100.00;69501.63;4993744;28;20463;-58
2022/08/21 00:30:54;;;;;;;12.45;10.10;;;;;;;-146.58;100.00;69501.63;4992508;28;20051;-58
2022/08/21 00:33:19;;;;;;;22.20;11.68;;;;;;;-146.58;100.00;69501.63;4994340;28;20030;-58
2022/08/21 00:35:44;;;;;;;17.20;12.07;;;;;;;-146.58;100.00;69501.63;4991994;28;20038;-58
2022/08/21 00:38:10;;;;;;;15.25;10.68;;;;;;;-146.58;100.00;69501.63;4994179;28;20026;-58
2022/08/21 00:40:46;;;;;;;16.77;10.95;;;;;;;-146.58;100.00;69501.63;4992171;28;20540;-58
2022/08/21 00:43:17;;;;;;;15.48;10.15;;;;;;;-146.58;100.00;69501.63;4993501;28;20026;-58
2022/08/21 00:45:44;;;;;;;17.05;11.55;;;;;;;-146.58;100.00;69501.63;4992422;28;20045;-58
2022/08/21 00:48:10;;;;;;;13.82;9.88;;;;;;;-146.58;100.00;69501.63;4994008;28;20030;-58
2022/08/21 00:50:39;;;;;;;13.20;11.82;;;;;;;-146.58;100.00;69501.63;4991709;28;20049;-58
2022/08/21 00:53:06;;;;;;;15.70;12.68;;;;;;;12.90;100.00;163936.53;4993663;28;20030;-58
2022/08/21 00:55:33;;;;;;;9.18;7.60;;;;;;;-146.58;100.00;69501.63;4992055;28;20042;-58
2022/08/21 00:58:00;;;;;;;14.20;8.95;;;;;;;-146.58;100.00;69501.63;4993103;28;20058;-58
2022/08/21 01:00:30;;;;;;;15.10;10.20;;;;;;;-146.58;100.00;69501.63;4992010;28;20096;-58
2022/08/21 01:02:57;;;;;;;17.42;10.55;;;;;;;-146.58;100.00;69501.63;4993476;28;20054;-58
2022/08/21 01:05:23;;;;;;;8.80;7.95;;;;;;;12.90;100.00;163936.53;4991287;28;20077;-58
2022/08/21 01:07:49;;;;;;;14.02;10.60;;;;;;;12.26;100.00;163770.28;4993379;28;20022;-58
2022/08/21 01:10:15;;;;;;;15.73;12.40;;;;;;;12.20;100.00;163754.09;4991997;28;20206;-58
2022/08/21 01:12:41;;;;;;;15.88;11.30;;;;;;;12.19;100.00;163752.75;4992514;28;20037;-58
2022/08/21 01:15:08;;;;;;;7.53;6.82;;;;;;;12.16;100.00;163744.63;4991752;28;20042;-58
2022/08/21 01:17:35;;;;;;;7.90;7.23;;;;;;;12.08;100.00;163721.69;4993012;28;20088;-58
2022/08/21 01:20:05;;;;;;;17.55;11.52;;;;;;;12.07;100.00;163720.28;4991362;28;21019;-58
2022/08/21 01:22:31;;;;;;;10.85;9.63;;;;;;;12.01;100.00;163705.47;4993104;28;20038;-58
2022/08/21 01:24:56;;;;;;;11.55;10.40;;;;;;;11.97;100.00;163694.63;4991476;28;20038;-58
2022/08/21 01:27:21;;;;;;;14.73;9.68;;;;;;;11.93;100.00;163683.81;4992976;28;20023;-58
2022/08/21 01:29:56;;;;;;;12.10;8.48;;;;;;;11.86;100.00;163664.91;4991342;28;20042;-58
2022/08/21 01:32:23;;;;;;;11.98;10.38;;;;;;;11.87;100.00;163667.59;4993148;28;20049;-58
2022/08/21 01:34:51;;;;;;;10.10;8.02;;;;;;;11.84;100.00;163660.81;4991151;28;20038;-58
2022/08/21 01:37:19;;;;;;;9.23;7.53;;;;;;;11.82;100.00;163655.44;4992739;28;20100;-58
2022/08/21 01:39:45;;;;;;;9.77;8.88;;;;;;;11.77;100.00;163640.56;4991210;28;20092;-58
2022/08/21 01:42:10;;;;;;;15.43;8.95;;;;;;;11.74;100.00;163633.81;4992369;28;20117;-58
2022/08/21 01:44:36;;;;;;;9.57;8.68;;;;;;;11.72;100.00;163629.78;4991126;28;20165;-58
2022/08/21 01:47:05;;;;;;;15.25;10.10;;;;;;;11.72;100.00;163629.78;4992963;28;20033;-58
2022/08/21 01:49:30;;;;;;;14.13;9.40;;;;;;;11.68;100.00;163618.94;4990677;28;20042;-58
2022/08/21 01:51:55;;;;;;;9.02;8.27;;;;;;;11.66;100.00;163613.53;4992470;28;20544;-58
2022/08/21 01:54:21;;;;;;;7.38;6.75;;;;;;;11.64;100.00;163608.16;4991265;28;20038;-58
2022/08/21 01:56:49;;;;;;;7.78;6.47;;;;;;;11.60;100.00;163597.31;4991804;28;20022;-58
2022/08/21 01:59:15;;;;;;;9.82;8.82;;;;;;;11.58;100.00;163591.91;4991113;28;20038;-58
2022/08/21 02:01:40;;;;;;;11.38;10.15;;;;;;;11.56;100.00;163586.53;4992231;28;20050;-58
2022/08/21 02:04:07;;;;;;;13.50;10.75;;;;;;;11.52;100.00;163575.72;4990579;28;20026;-58
2022/08/21 02:06:33;;;;;;;18.55;13.30;;;;;;;11.50;100.00;163570.34;4992058;28;20034;-58
2022/08/21 02:08:58;;;;;;;11.63;10.63;;;;;;;11.49;100.00;163567.63;4990734;28;20026;-58
2022/08/21 02:11:24;;;;;;;11.80;9.70;;;;;;;11.47;100.00;163562.22;4991729;28;20022;-58
2022/08/21 02:13:49;;;;;;;9.25;8.45;;;;;;;11.42;100.00;163551.44;4991555;28;20030;-58
2022/08/21 02:16:15;;;;;;;11.50;10.27;;;;;;;11.43;100.00;163554.09;4992683;28;20381;-58
2022/08/21 02:18:40;;;;;;;13.73;12.32;;;;;;;11.43;100.00;163554.09;4991775;28;20520;-58
2022/08/21 02:21:06;;;;;;;14.82;13.55;;;;;;;11.41;100.00;163548.75;4990694;28;20042;-58
2022/08/21 02:23:32;;;;;;;15.13;11.85;;;;;;;11.41;100.00;163548.75;4991411;28;20026;-58
2022/08/21 02:26:00;;;;;;;16.58;14.95;;;;;;;11.43;100.00;163554.09;4990212;28;20480;-58
2022/08/21 02:28:26;;;;;;;16.17;11.73;;;;;;;11.45;100.00;163556.81;4992016;28;20377;-58
2022/08/21 02:30:51;;;;;;;19.98;14.95;;;;;;;11.42;100.00;163550.06;4990420;28;20081;-58
2022/08/21 02:33:17;;;;;;;21.00;15.73;;;;;;;11.38;100.00;163540.63;4991888;28;20029;-58
2022/08/21 02:35:44;;;;;;;18.75;9.48;;;;;;;11.41;100.00;163547.34;4990237;28;20046;-58
2022/08/21 02:38:13;;;;;;;11.18;8.70;;;;;;;11.36;100.00;163535.19;4991699;28;20026;-58
2022/08/21 02:40:40;;;;;;;14.38;9.90;;;;;;;11.32;100.00;163524.41;4989695;28;20039;-58
2022/08/21 02:43:07;;;;;;;8.77;7.97;;;;;;;11.30;100.00;163519.00;4991853;28;20026;-58
2022/08/21 02:45:34;;;;;;;11.48;7.53;;;;;;;-146.58;100.00;69501.63;4990142;28;20038;-58
2022/08/21 02:48:02;;;;;;;11.15;8.50;;;;;;;-146.58;100.00;69501.63;4991705;28;20077;-58
2022/08/21 02:50:30;;;;;;;11.25;9.98;;;;;;;11.30;100.00;163519.00;4990186;28;20176;-58
2022/08/21 02:52:56;;;;;;;13.52;11.00;;;;;;;11.13;100.00;163473.13;4991775;28;20041;-58
2022/08/21 02:55:27;;;;;;;10.38;9.38;;;;;;;11.11;100.00;163469.03;4989823;28;20053;-58
2022/08/21 02:57:54;;;;;;;10.75;9.88;;;;;;;11.08;100.00;163462.28;4991573;28;20553;-58
2022/08/21 03:00:22;;;;;;;174.63;16.67;;;;;;;11.05;100.00;163454.22;4990400;28;20053;-58
2022/08/21 03:02:48;;;;;;;11.35;7.55;;;;;;;11.03;100.00;163448.81;4991120;28;20031;-58
2022/08/21 03:05:14;;;;;;;14.68;13.15;;;;;;;11.02;100.00;163446.09;4990176;28;20042;-58
2022/08/21 03:07:41;;;;;;;18.20;14.27;;;;;;;11.04;100.00;163451.50;4991307;28;20045;-58
2022/08/21 03:10:07;;;;;;;16.15;13.15;;;;;;;11.02;100.00;163446.09;4989702;28;20038;-58
2022/08/21 03:12:35;;;;;;;14.68;13.13;;;;;;;11.00;100.00;163440.69;4991550;28;20037;-59
2022/08/21 03:15:06;;;;;;;14.05;12.45;;;;;;;10.99;100.00;163437.97;4990248;28;20416;-58
2022/08/21 03:17:31;;;;;;;13.75;12.38;;;;;;;10.92;100.00;163420.47;4991178;28;20038;-58
2022/08/21 03:19:57;;;;;;;14.15;12.40;;;;;;;10.91;100.00;163416.38;4989987;28;20046;-58
2022/08/21 03:22:22;;;;;;;10.02;9.15;;;;;;;10.87;100.00;163405.59;4991400;28;20030;-58
2022/08/21 03:24:48;;;;;;;10.73;8.90;;;;;;;10.84;100.00;163397.47;4989583;28;20437;-58
2022/08/21 03:27:13;;;;;;;10.60;9.60;;;;;;;10.75;100.00;163374.53;4991510;28;20022;-58
2022/08/21 03:29:39;;;;;;;10.43;9.43;;;;;;;10.73;100.00;163370.50;4989639;28;20121;-58
2022/08/21 03:32:05;;;;;;;8.60;7.80;;;;;;;10.77;100.00;163379.94;4991227;28;20023;-58
2022/08/21 03:34:30;;;;;;;10.23;9.30;;;;;;;10.73;100.00;163370.50;4989881;28;20549;-58
2022/08/21 03:36:56;;;;;;;12.45;10.77;;;;;;;10.73;100.00;163370.50;4994601;28;20486;-58
2022/08/21 03:39:21;;;;;;;11.57;10.30;;;;;;;10.73;100.00;163370.50;4993461;28;20038;-58
2022/08/21 03:41:47;;;;;;;15.73;11.38;;;;;;;10.74;100.00;163373.22;4994762;28;20022;-58
2022/08/21 03:44:13;;;;;;;16.35;14.68;;;;;;;10.72;100.00;163367.78;4993552;28;20406;-58
2022/08/21 03:46:39;;;;;;;19.20;14.82;;;;;;;10.78;100.00;163384.00;4994467;28;20394;-57
2022/08/21 03:49:05;;;;;;;16.60;15.02;;;;;;;10.73;100.00;163370.50;4993381;28;20029;-58
2022/08/21 03:51:33;;;;;;;19.23;16.92;;;;;;;10.83;100.00;163394.81;4993980;28;20025;-58
2022/08/21 03:53:59;;;;;;;25.90;18.80;;;;;;;10.86;100.00;163402.88;4992540;28;20026;-58
2022/08/21 03:56:24;;;;;;;28.70;20.25;;;;;;;10.87;100.00;163405.59;4993984;28;20520;-58
2022/08/21 03:58:49;;;;;;;22.27;19.23;;;;;;;10.85;100.00;163400.19;4994240;28;20030;-58
2022/08/21 04:01:15;;;;;;;21.02;18.50;;;;;;;10.92;100.00;163420.47;4992292;28;20695;-58
2022/08/21 04:03:40;;;;;;;23.95;21.42;;;;;;;10.98;100.00;163435.31;4993782;28;20034;-58
2022/08/21 04:06:06;;;;;;;27.35;24.50;;;;;;;11.04;100.00;163451.50;4992524;28;20072;-58
2022/08/21 04:08:32;;;;;;;18.35;16.52;;;;;;;11.09;100.00;163465.00;4993864;28;20021;-58
2022/08/21 04:10:58;;;;;;;24.50;18.60;;;;;;;11.13;100.00;163473.13;4992296;28;20038;-58
2022/08/21 04:13:24;;;;;;;26.90;17.38;;;;;;;11.09;100.00;163465.00;4993665;28;20510;-58
2022/08/21 04:15:50;;;;;;;20.80;15.88;;;;;;;11.05;100.00;163454.22;4992442;28;20046;-59
2022/08/21 04:18:15;;;;;;;17.17;14.23;;;;;;;10.99;100.00;163437.97;4993668;28;20026;-58
2022/08/21 04:20:42;;;;;;;19.10;17.05;;;;;;;10.92;100.00;163419.06;4992402;28;20045;-58
2022/08/21 04:23:08;;;;;;;19.98;17.83;;;;;;;10.90;100.00;163415.03;4994463;28;20034;-58
2022/08/21 04:25:33;;;;;;;25.80;18.90;;;;;;;10.91;100.00;163417.75;4992522;28;20049;-58
2022/08/21 04:27:59;;;;;;;23.48;20.95;;;;;;;10.94;100.00;163424.50;4994285;28;20026;-58
2022/08/21 04:30:25;;;;;;;24.98;18.40;;;;;;;10.96;100.00;163429.91;4992313;28;20046;-58
2022/08/21 04:32:50;;;;;;;24.35;21.30;;;;;;;10.92;100.00;163419.06;4993897;28;20124;-58
2022/08/21 04:35:20;;;;;;;31.15;24.73;;;;;;;10.97;100.00;163432.63;4992616;28;20066;-58
2022/08/21 04:37:45;;;;;;;28.95;23.08;;;;;;;11.02;100.00;163446.09;4993778;28;20034;-58
2022/08/21 04:40:12;;;;;;;30.52;23.83;;;;;;;11.05;100.00;163454.22;4992089;28;20097;-58
2022/08/21 04:42:44;;;;;;;35.80;25.73;;;;;;;11.08;100.00;163462.28;4993545;28;20425;-58
2022/08/21 04:45:26;;;;;;;25.42;22.27;;;;;;;11.09;100.00;163465.00;4992666;28;20042;-57
2022/08/21 04:47:54;;;;;;;29.67;24.25;;;;;;;11.10;100.00;163467.72;4992751;28;20030;-58
2022/08/21 04:50:26;;;;;;;26.02;23.40;;;;;;;11.13;100.00;163473.13;4992081;28;20387;-58
2022/08/21 04:52:52;;;;;;;32.65;22.65;;;;;;;11.16;100.00;163481.19;4993720;28;20113;-58
2022/08/21 04:55:19;;;;;;;26.20;21.95;;;;;;;11.17;100.00;163483.91;4991795;28;20046;-58
2022/08/21 04:57:45;;;;;;;32.63;20.35;;;;;;;11.17;100.00;163483.91;4993653;28;20030;-58
2022/08/21 05:00:12;;;;;;;18.55;16.48;;;;;;;11.17;100.00;163483.91;4992336;28;20571;-58
2022/08/21 05:02:39;;;;;;;21.05;16.67;;;;;;;11.11;100.00;163470.41;4993166;28;20026;-58
2022/08/21 05:05:05;;;;;;;23.15;18.38;;;;;;;11.08;100.00;163462.28;4991824;28;20121;-58
2022/08/21 05:07:31;;;;;;;20.85;18.75;;;;;;;11.09;100.00;163465.00;4993143;28;20030;-58
2022/08/21 05:09:59;;;;;;;22.45;17.75;;;;;;;11.10;100.00;163467.72;4991811;28;20042;-58
2022/08/21 05:12:25;;;;;;;21.55;17.60;;;;;;;11.07;100.00;163459.59;4993150;28;20022;-58
2022/08/21 05:14:50;;;;;;;24.92;20.75;;;;;;;11.10;100.00;163467.72;4991951;28;20375;-57
2022/08/21 05:17:15;;;;;;;24.92;22.42;;;;;;;11.18;100.00;163486.59;4993058;28;20022;-57
2022/08/21 05:19:41;;;;;;;24.77;22.10;;;;;;;11.26;100.00;163508.22;4991462;28;20034;-57
2022/08/21 05:22:06;;;;;;;24.92;21.92;;;;;;;11.32;100.00;163524.41;4993087;28;20077;-58
2022/08/21 05:24:32;;;;;;;27.50;21.30;;;;;;;11.40;100.00;163546.03;4990973;28;20049;-58
2022/08/21 05:26:58;;;;;;;27.77;23.90;;;;;;;11.50;100.00;163571.69;4992860;28;20026;-58
2022/08/21 05:29:23;;;;;;;28.80;25.63;;;;;;;11.59;100.00;163594.63;4991111;28;20512;-57
2022/08/21 05:31:49;;;;;;;27.27;24.35;;;;;;;11.70;100.00;163624.38;4992234;28;20080;-57
2022/08/21 05:34:18;;;;;;;28.67;24.67;;;;;;;11.84;100.00;163659.47;4991101;28;20038;-57
2022/08/21 05:36:44;;;;;;;33.58;24.52;;;;;;;11.98;100.00;163697.34;4992103;28;20197;-57
2022/08/21 05:39:10;;;;;;;29.60;26.50;;;;;;;12.14;100.00;163164.72;4990449;28;20591;-57
2022/08/21 05:41:35;;;;;;;28.48;24.88;;;;;;;12.28;100.00;162476.91;4992037;28;20030;-57
2022/08/21 05:44:00;;;;;;;29.52;26.05;;;;;;;12.40;100.00;162255.72;4990490;28;20030;-58
2022/08/21 05:46:26;;;;;;;30.55;26.30;;;;;;;12.48;100.00;161907.44;4991796;28;20364;-58
2022/08/21 05:48:51;;;;;;;28.00;24.95;;;;;;;12.65;100.00;160562.44;4990536;28;20433;-58
2022/08/21 05:51:17;;;;;;;30.00;22.10;;;;;;;12.84;100.00;158588.44;4992250;28;20014;-58
2022/08/21 05:53:44;;;;;;;25.33;22.92;;;;;;;13.04;100.00;156173.78;4991633;28;20466;-58
2022/08/21 05:56:11;;;;;;;25.30;21.48;;;;;;;13.16;100.00;154787.34;4990654;28;20042;-58
2022/08/21 05:58:36;;;;;;;25.63;21.55;;;;;;;13.39;100.00;153780.41;4990729;28;20155;-58
2022/08/21 06:01:03;;;;;;;29.35;20.48;;;;;;;13.56;100.00;153823.44;4990534;28;20034;-57
2022/08/21 06:03:31;;;;;;;21.60;17.20;;;;;;;13.72;100.00;155280.84;4992219;28;20037;-58
2022/08/21 06:05:57;;;;;;;21.88;18.35;;;;;;;13.85;100.00;160026.19;4990807;28;20446;-58
2022/08/21 06:08:23;;;;;;;19.50;16.60;;;;;;;13.99;100.00;164069.13;4991974;28;20026;-58
2022/08/21 06:10:50;;;;;;;18.15;14.55;;;;;;;14.12;100.00;164257.03;4990691;28;20042;-58
2022/08/21 06:13:16;;;;;;;19.63;14.05;;;;;;;14.22;100.00;164284.13;4992261;28;20031;-58
2022/08/21 06:15:42;;;;;;;21.58;13.15;;;;;;;14.37;100.00;164322.00;4990110;28;20101;-58
2022/08/21 06:18:07;;;;;;;14.20;11.75;;;;;;;14.47;100.00;164349.06;4992160;28;20030;-58
2022/08/21 06:20:33;;;;;;;15.00;12.45;;;;;;;14.61;100.00;164385.56;4990509;28;20042;-58
2022/08/21 06:22:59;;;;;;;16.25;12.15;;;;;;;14.74;100.00;164419.47;4991703;28;20103;-58
2022/08/21 06:25:24;;;;;;;15.55;11.25;;;;;;;14.86;100.00;164451.91;4990419;28;20049;-58
2022/08/21 06:27:50;;;;;;;15.20;10.27;;;;;;;15.02;100.00;164492.53;4991959;28;20038;-58
2022/08/21 06:30:16;;;;;;;15.63;11.10;;;;;;;15.14;100.00;164525.03;4989921;28;20046;-58
2022/08/21 06:32:42;;;;;;;10.68;9.68;;;;;;;15.30;100.00;164566.97;4991898;28;20157;-58
2022/08/21 06:35:07;;;;;;;14.98;10.13;;;;;;;15.47;100.00;164611.66;4990641;28;20069;-58
2022/08/21 06:37:33;;;;;;;17.27;12.07;;;;;;;15.61;100.00;164646.84;4990191;28;20109;-58
2022/08/21 06:39:58;;;;;;;17.70;10.27;;;;;;;15.77;100.00;164690.16;4988954;28;20116;-58
2022/08/21 06:42:24;;;;;;;13.25;8.75;;;;;;;15.91;100.00;164726.81;4990570;28;20023;-58
2022/08/21 06:44:49;;;;;;;11.85;8.98;;;;;;;15.91;100.00;164726.81;4989069;28;20048;-58
2022/08/21 06:47:15;;;;;;;12.18;7.55;;;;;;;16.18;100.00;164797.19;4991231;28;20022;-58
2022/08/21 06:49:40;;;;;;;7.88;6.88;;;;;;;16.32;100.00;164833.78;4989452;28;20030;-58
2022/08/21 06:52:13;;;;;;;10.93;7.70;;;;;;;16.53;100.00;164887.94;4991020;28;20033;-58
2022/08/21 06:54:39;;;;;;;9.45;7.07;;;;;;;16.69;100.00;164931.31;4989798;28;20572;-58
2022/08/21 06:57:04;;;;;;;9.50;6.90;;;;;;;16.83;100.00;164966.53;4991543;28;20031;-58
2022/08/21 06:59:31;;;;;;;7.38;6.18;;;;;;;16.96;100.00;165001.78;4989797;28;20096;-58
2022/08/21 07:01:57;;;;;;;12.15;7.97;;;;;;;17.17;100.00;165055.97;4991467;28;20062;-58
2022/08/21 07:04:22;;;;;;;6.82;5.55;;;;;;;17.36;100.00;165107.50;4989836;28;20118;-58
2022/08/21 07:06:48;;;;;;;8.40;6.13;;;;;;;17.59;100.00;165168.47;4990962;28;20026;-58
2022/08/21 07:09:13;;;;;;;16.98;6.25;;;;;;;17.99;100.00;165271.56;4990173;28;20038;-58
2022/08/21 07:11:39;;;;;;;9.57;5.35;;;;;;;18.47;100.00;165397.66;4994952;28;20076;-58
2022/08/21 07:14:04;;;;;;;10.23;5.97;;;;;;;19.11;100.00;165567.25;4993744;28;20034;-58
2022/08/21 07:16:30;;;;;;;7.22;5.35;;;;;;;19.74;100.00;165731.41;4995198;28;20088;-58
2022/08/21 07:18:55;;;;;;;13.48;5.10;;;;;;;20.14;100.00;165837.31;4993970;28;20037;-58
2022/08/21 07:21:21;;;;;;;8.35;4.88;;;;;;;20.38;100.00;165899.72;4994949;28;20014;-58
2022/08/21 07:23:49;;;;;;;7.63;5.07;;;;;;;20.28;100.00;165875.34;4994798;28;20026;-58
2022/08/21 07:26:16;;;;;;;;;;;;;;;20.31;100.00;165880.72;4993994;28;20042;-59
2022/08/21 07:28:41;;;;;;;10.98;5.85;;;;;;;20.32;100.00;165883.44;4994705;28;19917;-58
2022/08/21 07:31:09;;;;;;;17.65;6.47;;;;;;;20.62;100.00;165963.56;4993492;28;20046;-58
2022/08/21 07:33:35;;;;;;;8.68;5.45;;;;;;;20.83;100.00;166017.91;4994942;28;20026;-58
2022/08/21 07:36:01;;;;;;;12.15;5.60;;;;;;;20.96;100.00;166051.88;4993379;28;20064;-58
2022/08/21 07:38:26;;;;;;;8.55;5.68;;;;;;;21.19;100.00;166112.94;4995090;28;20025;-58
2022/08/21 07:40:55;;;;;;;9.90;5.97;;;;;;;21.20;100.00;166115.69;4993849;28;20046;-58
2022/08/21 07:43:21;;;;;;;;;;;;;;;21.28;100.00;166137.41;4995553;28;20397;-59
2022/08/21 07:45:49;;;;;;;12.90;6.53;;;;;;;21.46;100.00;166184.94;4992861;28;19925;-58
2022/08/21 07:48:14;;;;;;;11.40;6.40;;;;;;;21.62;100.00;166225.75;4994823;28;20041;-58
2022/08/21 07:50:40;;;;;;;16.00;7.18;;;;;;;21.78;100.00;166269.16;4993245;28;20042;-58
2022/08/21 07:53:07;;;;;;;12.52;7.53;;;;;;;21.94;100.00;166311.31;4995118;28;20178;-58
2022/08/21 07:55:32;;;;;;;12.75;7.47;;;;;;;21.62;100.00;166227.06;4992985;28;20042;-57
2022/08/21 07:57:58;;;;;;;9.88;7.00;;;;;;;21.35;100.00;166156.41;4993304;28;20022;-58
2022/08/21 08:00:27;;;;;;;18.02;8.55;;;;;;;20.97;100.00;166054.53;4991631;28;20054;-58
2022/08/21 08:02:53;;;;;;;18.40;8.63;;;;;;;20.48;100.00;165925.56;4993357;28;20022;-59
2022/08/21 08:05:22;;;;;;;18.20;9.57;;;;;;;20.17;100.00;165845.44;4991794;28;20048;-58
2022/08/21 08:07:48;;;;;;;15.20;7.35;;;;;;;19.96;100.00;165791.16;4993214;28;20038;-58
2022/08/21 08:10:13;;;;;;;13.15;8.52;;;;;;;19.94;100.00;165784.38;4992780;28;20070;-58
2022/08/21 08:12:40;;;;;;;16.05;11.55;;;;;;;20.13;100.00;165835.94;4993937;28;20041;-58
2022/08/21 08:15:09;;;;;;;11.48;8.30;;;;;;;20.26;100.00;165868.50;4992236;28;20042;-59
2022/08/21 08:17:34;;;;;;;11.63;8.93;;;;;;;20.60;100.00;165958.13;4993382;28;20022;-58
2022/08/21 08:20:02;;;;;;;11.75;7.07;;;;;;;20.79;100.00;166008.41;4992495;28;20046;-59
2022/08/21 08:22:28;;;;;;;10.00;7.57;;;;;;;20.86;100.00;166027.41;4992181;28;20056;-58
2022/08/21 08:24:54;;;;;;;13.20;7.22;;;;;;;20.76;100.00;166000.25;4992279;28;20050;-58
2022/08/21 08:27:19;;;;;;;17.45;8.90;;;;;;;20.73;100.00;165993.47;4993417;28;20030;-58
2022/08/21 08:29:45;;;;;;;12.10;7.50;;;;;;;20.80;100.00;166011.13;4991469;28;20104;-59
2022/08/21 08:32:11;;;;;;;9.30;7.43;;;;;;;20.86;100.00;166027.41;4993938;28;20398;-59
2022/08/21 08:34:38;;;;;;;15.77;9.23;;;;;;;21.12;100.00;166095.28;4991858;28;20535;-59
2022/08/21 08:37:05;;;;;;;22.48;9.90;;;;;;;21.56;100.00;166212.06;4982012;28;20031;-59
2022/08/21 08:39:30;;;;;;;9.52;7.18;;;;;;;21.96;100.00;166315.38;4982480;28;20057;-58
2022/08/21 08:42:06;;;;;;;13.70;8.48;;;;;;;22.29;100.00;166402.34;4992258;28;20458;-58
2022/08/21 08:44:32;;;;;;;16.27;7.72;;;;;;;22.17;100.00;166372.44;4991742;28;20026;-57
2022/08/21 08:46:59;;;;;;;13.27;6.43;;;;;;;22.49;100.00;166455.34;4993463;28;20034;-58
2022/08/21 08:49:30;;;;;;;12.45;6.97;;;;;;;22.67;100.00;166502.97;4992837;28;20022;-58
2022/08/21 08:52:05;;;;;;;11.10;8.30;;;;;;;22.65;100.00;166498.84;4980376;28;20502;-58
2022/08/21 08:54:43;;;;;;;18.40;7.47;;;;;;;22.56;100.00;166473.03;4984007;28;20553;-59
2022/08/21 08:57:10;;;;;;;;;;;;;;;22.30;100.00;166405.06;4966640;28;20050;-59
2022/08/21 08:59:42;;;;;;;14.05;5.78;;;;;;;22.32;100.00;166410.47;4964143;28;19910;-58
2022/08/21 09:02:11;;;;;;;9.88;6.97;;;;;;;22.17;100.00;166371.09;4985082;28;20026;-58
2022/08/21 09:04:36;;;;;;;8.95;6.07;;;;;;;22.34;100.00;166415.91;4983848;28;20037;-59
2022/08/21 09:07:30;;;;;;;11.25;6.97;;;;;;;22.77;100.00;166528.78;4988048;28;20030;-58
2022/08/21 09:10:16;;;;;;;15.55;6.65;;;;;;;23.00;100.00;166589.91;4983211;28;20406;-59
2022/08/21 09:12:52;;;;;;;13.18;5.25;;;;;;;22.90;100.00;166562.72;4982313;28;20113;-59
2022/08/21 09:15:32;;;;;;;14.13;5.60;;;;;;;22.78;100.00;166532.84;4989900;28;20546;-58
2022/08/21 09:18:28;;;;;;;10.52;5.88;;;;;;;23.03;100.00;166598.09;4992988;28;20014;-59
2022/08/21 09:21:00;;;;;;;11.98;6.93;;;;;;;23.04;100.00;166600.81;4975326;28;20129;-59
2022/08/21 09:23:48;;;;;;;8.93;5.65;;;;;;;23.10;100.00;166617.13;4991085;28;20109;-59
2022/08/21 09:26:16;;;;;;;10.20;6.07;;;;;;;23.01;100.00;166592.63;4990458;28;20046;-60
2022/08/21 09:28:42;;;;;;;14.15;6.35;;;;;;;23.02;100.00;166595.38;4990938;28;20145;-59
2022/08/21 09:31:18;;;;;;;11.52;4.75;;;;;;;22.90;100.00;166564.09;4994010;28;20054;-59
2022/08/21 09:33:43;;;;;;;9.02;4.78;;;;;;;22.87;100.00;166555.94;4981926;28;20022;-59
2022/08/21 09:36:09;;;;;;;13.27;4.75;;;;;;;23.30;100.00;166668.81;4989563;28;20049;-58
2022/08/21 09:38:37;;;;;;;7.15;4.75;;;;;;;23.44;100.00;166706.88;4990086;28;20504;-59
2022/08/21 09:41:09;;;;;;;16.70;5.05;;;;;;;23.53;100.00;166729.97;4980935;28;20042;-59
2022/08/21 09:43:37;;;;;;;8.63;5.40;;;;;;;23.60;100.00;166747.66;4978109;28;20022;-59
2022/08/21 09:46:12;;;;;;;7.97;4.07;;;;;;;23.51;100.00;166723.19;4989037;28;20042;-58
2022/08/21 09:48:41;;;;;;;11.82;4.63;;;;;;;23.54;100.00;166731.34;4989199;28;20022;-60
2022/08/21 09:51:10;;;;;;;8.55;4.70;;;;;;;23.74;100.00;166784.38;4984021;28;20048;-59
2022/08/21 09:53:42;;;;;;;4.60;3.10;;;;;;;23.76;100.00;166791.19;4991421;28;20034;-59
2022/08/21 09:59:23;;;;;;;9.88;4.30;;;;;;;23.76;100.00;166791.19;4989821;28;20045;-60
2022/08/21 10:01:50;;;;;;;9.10;3.55;;;;;;;23.70;100.00;166773.47;4990905;28;20620;-58
2022/08/21 10:04:30;;;;;;;5.30;3.22;;;;;;;23.70;100.00;166774.88;4989487;28;20042;-58
2022/08/21 10:07:13;;;;;;;11.60;4.25;;;;;;;23.91;100.00;166829.25;4975224;28;20051;-59
2022/08/21 10:09:39;;;;;;;11.60;4.50;;;;;;;24.25;100.00;166919.03;4989887;28;20552;-60
2022/08/21 10:12:15;;;;;;;10.15;3.95;;;;;;;24.33;100.00;166940.81;4990083;28;20034;-59
2022/08/21 10:14:44;;;;;;;12.50;3.92;;;;;;;24.38;100.00;166953.06;4988777;28;20138;-59
2022/08/21 10:17:24;;;;;;;8.57;3.70;;;;;;;23.95;100.00;166840.16;4991510;28;20033;-58
2022/08/21 10:19:59;;;;;;;13.85;3.88;;;;;;;23.97;100.00;166845.63;4989438;28;20050;-58
2022/08/21 10:22:32;;;;;;;11.75;3.58;;;;;;;24.53;100.00;166992.53;4987628;28;20038;-59
2022/08/21 10:25:06;;;;;;;14.85;5.85;;;;;;;24.79;100.00;167061.94;4988180;28;20069;-58
2022/08/21 10:27:34;;;;;;;10.73;4.07;;;;;;;24.93;100.00;167098.66;4971709;28;20097;-60
2022/08/21 10:30:12;;;;;;;11.88;3.80;;;;;;;25.08;100.00;167136.75;4987451;28;20056;-59
2022/08/21 10:32:59;;;;;;;9.77;5.28;;;;;;;24.98;100.00;167112.25;4991348;28;20026;-59
2022/08/21 10:35:31;;;;;;;10.25;4.07;;;;;;;24.84;100.00;167074.16;4988109;28;20050;-58
2022/08/21 10:38:30;;;;;;;9.38;4.72;;;;;;;24.85;100.00;167076.88;4989817;28;20371;-59
2022/08/21 10:41:15;;;;;;;11.38;4.53;;;;;;;24.67;100.00;167030.66;4986365;28;20048;-58
2022/08/21 10:43:51;;;;;;;15.25;5.18;;;;;;;24.69;100.00;167036.06;4989860;28;20049;-59
2022/08/21 10:46:46;;;;;;;7.40;3.83;;;;;;;24.75;100.00;167051.03;4988570;28;20054;-59
2022/08/21 10:49:21;;;;;;;7.90;3.22;;;;;;;24.91;100.00;167091.84;4988659;28;21629;-58
2022/08/21 10:51:56;;;;;;;14.55;3.88;;;;;;;24.88;100.00;167085.06;4988621;28;20429;-58
2022/08/21 10:54:43;;;;;;;7.38;3.13;;;;;;;24.95;100.00;167102.72;4989613;28;20449;-58
2022/08/21 10:57:29;;;;;;;6.95;3.67;;;;;;;25.18;100.00;167163.97;4991007;28;20105;-58
2022/08/21 11:00:05;;;;;;;8.82;3.17;;;;;;;25.05;100.00;167129.94;4989471;28;20656;-59
2022/08/21 11:02:37;;;;;;;10.43;4.15;;;;;;;24.58;100.00;167004.72;4990479;28;20034;-58
2022/08/21 11:05:11;;;;;;;6.30;2.78;;;;;;;24.25;100.00;166919.03;4988886;28;20538;-58
2022/08/21 11:07:45;;;;;;;4.90;2.30;;;;;;;24.25;100.00;166919.03;4990345;28;20502;-58
2022/08/21 11:10:20;;;;;;;5.80;2.47;;;;;;;24.26;100.00;166921.75;4987601;28;20401;-58
2022/08/21 11:12:58;;;;;;;11.15;3.40;;;;;;;24.58;100.00;167006.09;4990056;28;20026;-58
2022/08/21 11:15:34;;;;;;;9.25;2.08;;;;;;;24.86;100.00;167081.00;4989104;28;20046;-58